Lake Sherwood, Missouri
Current Conditions -  °F | °C
As of 8:55 PM on Saturday 25 Oct 2014 (Local Time) from KFYG Reporting Station
Clear Clear  
Wind Chill: 16°   Ceiling: Unl
Heat Index: 16°   Visibility: 9mi
Dew Point: 14°   Wind: 0mph
Humidity: 88%   Direction: NA
Pressure: 30.01"   Gusts: NA
Location:  38.6485°N, 91.0773°W
Report Text: KFYG 260155Z AUTO 00000KT 9SM CLR 16/14 A3001 RMK AO2
Loading
Personal Weather Stations






























Interactive Weather Map
Tropical Storm Tracking
New forecast layout! Learn more

10-Day Weather Forecast

Advertisements
Track Severe Weather on mobile